createdAt,value
2018-09-20T00:01:43.654Z,101227.63
2018-09-20T00:04:12.495Z,101221.09
2018-09-20T00:06:41.320Z,101221.20
2018-09-20T00:09:10.159Z,101219.30
2018-09-20T00:11:38.967Z,101223.03
2018-09-20T00:14:07.815Z,101222.24
2018-09-20T00:16:36.672Z,101219.31
2018-09-20T00:19:05.513Z,101213.20
2018-09-20T00:21:34.307Z,101209.78
2018-09-20T00:24:03.209Z,101212.53
2018-09-20T00:26:32.100Z,101223.04
2018-09-20T00:29:00.993Z,101209.36
2018-09-20T00:31:29.819Z,101213.67
2018-09-20T00:33:59.525Z,101212.45
2018-09-20T00:36:28.363Z,101208.17
2018-09-20T00:38:57.200Z,101209.12
2018-09-20T00:41:26.033Z,101208.20
2018-09-20T00:43:54.891Z,101204.93
2018-09-20T00:46:26.684Z,101204.14
2018-09-20T00:48:56.386Z,101204.29
2018-09-20T00:51:25.251Z,101200.35
2018-09-20T00:53:54.109Z,101192.47
2018-09-20T00:56:22.965Z,101182.31
2018-09-20T00:58:51.802Z,101192.78
2018-09-20T01:01:20.680Z,101195.55
2018-09-20T01:03:49.528Z,101190.73
2018-09-20T01:06:18.405Z,101200.53
2018-09-20T01:08:47.239Z,101189.94
2018-09-20T01:11:16.128Z,101194.79
2018-09-20T01:13:44.956Z,101192.20
2018-09-20T01:16:13.814Z,101189.14
2018-09-20T01:18:42.656Z,101198.55
2018-09-20T01:21:11.480Z,101196.66
2018-09-20T01:23:40.313Z,101197.17
2018-09-20T01:26:09.155Z,101197.91
2018-09-20T01:28:37.994Z,101196.06
2018-09-20T01:31:06.836Z,101194.78
2018-09-20T01:33:35.667Z,101199.36
2018-09-20T01:36:04.491Z,101202.27
2018-09-20T01:38:33.335Z,101202.80
2018-09-20T01:41:02.195Z,101197.21
2018-09-20T01:43:31.393Z,101197.09
2018-09-20T01:46:00.224Z,101190.73
2018-09-20T01:48:29.097Z,101189.03
2018-09-20T01:50:57.914Z,101186.75
2018-09-20T01:53:26.723Z,101196.88
2018-09-20T01:55:55.573Z,101196.78
2018-09-20T01:58:24.405Z,101203.48
2018-09-20T02:00:53.252Z,101199.43
2018-09-20T02:03:22.105Z,101196.09
2018-09-20T02:05:50.982Z,101197.98
2018-09-20T02:08:19.824Z,101201.93
2018-09-20T02:10:48.655Z,101198.58
2018-09-20T02:13:17.515Z,101206.20
2018-09-20T02:15:46.344Z,101209.48
2018-09-20T02:18:15.188Z,101197.62
2018-09-20T02:20:44.018Z,101205.38
2018-09-20T02:23:12.844Z,101197.91
2018-09-20T02:25:41.749Z,101207.94
2018-09-20T02:28:10.580Z,101202.45
2018-09-20T02:30:39.418Z,101197.81
2018-09-20T02:33:08.225Z,101200.47
2018-09-20T02:35:37.123Z,101203.02
2018-09-20T02:38:05.897Z,101207.81
2018-09-20T02:40:34.770Z,101206.63
2018-09-20T02:43:03.597Z,101209.39
2018-09-20T02:45:32.405Z,101214.77
2018-09-20T02:48:01.286Z,101211.11
2018-09-20T02:50:30.152Z,101206.94
2018-09-20T02:52:58.964Z,101208.66
2018-09-20T02:55:27.847Z,101209.17
2018-09-20T02:57:56.688Z,101209.55
2018-09-20T03:00:25.513Z,101204.72
2018-09-20T03:02:54.325Z,101204.06
2018-09-20T03:05:23.133Z,101202.52
2018-09-20T03:07:51.978Z,101205.42
2018-09-20T03:10:20.823Z,101204.22
2018-09-20T03:12:49.750Z,101209.02
2018-09-20T03:15:18.570Z,101207.88
2018-09-20T03:17:47.437Z,101212.28
2018-09-20T03:20:16.260Z,101210.39
2018-09-20T03:22:45.114Z,101209.31
2018-09-20T03:25:13.952Z,101209.98
2018-09-20T03:27:42.798Z,101204.31
2018-09-20T03:30:11.692Z,101208.30
2018-09-20T03:32:40.480Z,101207.47
2018-09-20T03:35:09.330Z,101198.73
2018-09-20T03:37:38.170Z,101198.11
2018-09-20T03:40:07.048Z,101196.50
2018-09-20T03:42:35.877Z,101198.20
2018-09-20T03:45:04.725Z,101193.92
2018-09-20T03:47:33.575Z,101201.14
2018-09-20T03:50:02.447Z,101196.32
2018-09-20T03:52:31.257Z,101187.31
2018-09-20T03:55:00.078Z,101191.43
2018-09-20T03:57:28.933Z,101187.72
2018-09-20T03:59:57.759Z,101189.45
2018-09-20T04:02:26.619Z,101183.97
2018-09-20T04:04:55.463Z,101183.64
2018-09-20T04:07:24.313Z,101186.92
2018-09-20T04:09:53.171Z,101188.67
2018-09-20T04:12:22.001Z,101184.02
2018-09-20T04:14:50.832Z,101182.86
2018-09-20T04:17:19.696Z,101181.17
2018-09-20T04:19:48.524Z,101180.98
2018-09-20T04:22:17.386Z,101189.95
2018-09-20T04:24:46.223Z,101190.98
2018-09-20T04:27:15.083Z,101187.43
2018-09-20T04:29:43.935Z,101187.10
2018-09-20T04:32:12.746Z,101183.53
2018-09-20T04:34:41.582Z,101176.68
2018-09-20T04:37:10.408Z,101182.68
2018-09-20T04:39:39.266Z,101182.47
2018-09-20T04:42:08.079Z,101185.26
2018-09-20T04:44:36.947Z,101192.80
2018-09-20T04:47:06.032Z,101187.02
2018-09-20T04:49:34.893Z,101189.55
2018-09-20T04:52:03.726Z,101195.89
2018-09-20T04:54:32.569Z,101190.91
2018-09-20T04:57:01.422Z,101190.39
2018-09-20T04:59:30.265Z,101192.45
2018-09-20T05:01:59.118Z,101190.22
2018-09-20T05:04:27.965Z,101190.52
2018-09-20T05:06:56.800Z,101190.47
2018-09-20T05:09:25.726Z,101191.38
2018-09-20T05:11:54.487Z,101186.92
2018-09-20T05:14:23.341Z,101190.99
2018-09-20T05:16:52.260Z,101184.12
2018-09-20T05:19:21.168Z,101182.23
2018-09-20T05:21:49.976Z,101177.25
2018-09-20T05:24:18.825Z,101183.44
2018-09-20T05:26:47.690Z,101180.56
2018-09-20T05:29:16.581Z,101182.95
2018-09-20T05:31:45.428Z,101185.48
2018-09-20T05:34:14.271Z,101174.70
2018-09-20T05:36:43.165Z,101177.08
2018-09-20T05:39:12.410Z,101179.48
2018-09-20T05:41:41.289Z,101182.36
2018-09-20T05:44:10.700Z,101177.91
2018-09-20T05:46:40.326Z,101184.07
2018-09-20T05:49:09.167Z,101174.85
2018-09-20T05:51:38.165Z,101174.00
2018-09-20T05:54:07.315Z,101172.11
2018-09-20T05:56:36.167Z,101169.05
2018-09-20T05:59:05.301Z,101169.89
2018-09-20T06:01:34.184Z,101172.41
2018-09-20T06:04:03.056Z,101171.55
2018-09-20T06:06:31.883Z,101176.69
2018-09-20T06:09:00.738Z,101174.64
2018-09-20T06:11:29.570Z,101171.03
2018-09-20T06:13:58.404Z,101166.39
2018-09-20T06:16:27.254Z,101168.91
2018-09-20T06:18:56.083Z,101173.69
2018-09-20T06:21:24.948Z,101181.25
2018-09-20T06:23:53.790Z,101185.08
2018-09-20T06:26:22.656Z,101186.03
2018-09-20T06:28:51.530Z,101188.09
2018-09-20T06:31:20.497Z,101189.55
2018-09-20T06:33:49.296Z,101187.19
2018-09-20T06:36:18.135Z,101187.23
2018-09-20T06:38:46.976Z,101183.06
2018-09-20T06:41:15.797Z,101183.98
2018-09-20T06:43:44.662Z,101179.90
2018-09-20T06:46:13.540Z,101189.91
2018-09-20T06:48:42.440Z,101188.02
2018-09-20T06:51:11.261Z,101192.73
2018-09-20T06:53:40.509Z,101204.93
2018-09-20T06:56:09.328Z,101198.24
2018-09-20T06:58:38.208Z,101192.41
2018-09-20T07:01:07.049Z,101188.95
2018-09-20T07:03:35.872Z,101185.95
2018-09-20T07:06:04.720Z,101184.75
2018-09-20T07:08:33.711Z,101189.85
2018-09-20T07:11:02.547Z,101191.44
2018-09-20T07:13:31.750Z,101191.12
2018-09-20T07:16:00.493Z,101189.07
2018-09-20T07:18:29.343Z,101189.63
2018-09-20T07:20:58.212Z,101178.42
2018-09-20T07:23:27.069Z,101178.42
2018-09-20T07:25:55.937Z,101182.22
2018-09-20T07:28:24.812Z,101186.34
2018-09-20T07:30:53.680Z,101175.38
2018-09-20T07:33:22.522Z,101175.91
2018-09-20T07:35:51.346Z,101184.40
2018-09-20T07:38:20.184Z,101177.73
2018-09-20T07:40:49.006Z,101165.48
2018-09-20T07:43:17.844Z,101178.16
2018-09-20T07:45:46.733Z,101176.78
2018-09-20T07:48:15.553Z,101185.36
2018-09-20T07:50:44.377Z,101176.73
2018-09-20T07:53:13.213Z,101173.58
2018-09-20T07:55:42.087Z,101170.40
2018-09-20T07:58:10.912Z,101162.19
2018-09-20T08:00:39.766Z,101174.11
2018-09-20T08:03:08.600Z,101169.88
2018-09-20T08:05:37.463Z,101174.41
2018-09-20T08:08:06.334Z,101162.52
2018-09-20T08:10:35.176Z,101165.36
2018-09-20T08:13:04.126Z,101171.17
2018-09-20T08:15:32.945Z,101167.48
2018-09-20T08:18:01.804Z,101172.47
2018-09-20T08:20:30.671Z,101170.73
2018-09-20T08:22:59.518Z,101177.80
2018-09-20T08:25:28.370Z,101173.75
2018-09-20T08:27:57.207Z,101172.34
2018-09-20T08:30:26.025Z,101166.66
2018-09-20T08:32:54.931Z,101166.23
2018-09-20T08:35:23.794Z,101162.76
2018-09-20T08:37:52.724Z,101162.30
2018-09-20T08:40:21.495Z,101163.75
2018-09-20T08:42:50.381Z,101157.53
2018-09-20T08:45:19.206Z,101151.91
2018-09-20T08:47:48.020Z,101153.52
2018-09-20T08:50:17.401Z,101154.45
2018-09-20T08:52:46.308Z,101156.88
2018-09-20T08:55:15.246Z,101168.66
2018-09-20T08:57:56.073Z,101174.20
2018-09-20T09:00:26.432Z,101163.91
2018-09-20T09:02:55.252Z,101171.55
2018-09-20T09:05:24.067Z,101171.33
2018-09-20T09:07:52.948Z,101164.69
2018-09-20T09:10:21.872Z,101167.92
2018-09-20T09:12:50.713Z,101172.20
2018-09-20T09:15:19.552Z,101164.89
2018-09-20T09:17:48.388Z,101179.56
2018-09-20T09:22:55.110Z,101163.36
2018-09-20T09:25:23.998Z,101169.45
2018-09-20T09:27:52.829Z,101173.88
2018-09-20T09:30:21.660Z,101159.16
2018-09-20T09:32:50.494Z,101171.80
2018-09-20T09:35:19.354Z,101156.05
2018-09-20T09:37:48.204Z,101167.31
2018-09-20T09:40:17.413Z,101158.10
2018-09-20T09:42:46.242Z,101163.85
2018-09-20T09:45:15.088Z,101164.81
2018-09-20T09:47:43.919Z,101159.82
2018-09-20T09:50:12.790Z,101165.28
2018-09-20T09:52:41.814Z,101152.75
2018-09-20T09:55:10.671Z,101163.97
2018-09-20T09:57:39.468Z,101156.16
2018-09-20T10:00:08.286Z,101152.11
2018-09-20T10:02:37.244Z,101165.42
2018-09-20T10:05:05.996Z,101160.42
2018-09-20T10:07:34.819Z,101170.95
2018-09-20T10:10:03.693Z,101171.16
2018-09-20T10:12:32.499Z,101153.52
2018-09-20T10:15:01.363Z,101145.09
2018-09-20T10:17:30.181Z,101156.14
2018-09-20T10:19:59.106Z,101159.34
2018-09-20T10:22:27.861Z,101158.05
2018-09-20T10:24:56.701Z,101153.52
2018-09-20T10:27:25.542Z,101146.89
2018-09-20T10:29:54.367Z,101146.81
2018-09-20T10:32:23.208Z,101131.33
2018-09-20T10:34:52.047Z,101128.22
2018-09-20T10:37:21.243Z,101126.47
2018-09-20T10:39:57.371Z,101120.72
2018-09-20T10:42:25.111Z,101139.95
2018-09-20T10:44:58.300Z,101128.69
2018-09-20T10:47:26.208Z,101129.40
2018-09-20T10:49:55.551Z,101124.52
2018-09-20T10:52:24.744Z,101139.70
2018-09-20T10:54:57.001Z,101126.05
2018-09-20T10:57:26.232Z,101125.40
2018-09-20T10:59:55.512Z,101125.20
2018-09-20T11:02:27.429Z,101118.61
2018-09-20T11:04:56.584Z,101115.55
2018-09-20T11:07:28.691Z,101111.05
2018-09-20T11:09:57.853Z,101106.61
2018-09-20T11:12:27.228Z,101110.38
2018-09-20T11:14:56.251Z,101111.73
2018-09-20T11:17:25.498Z,101099.17
2018-09-20T11:19:54.723Z,101107.01
2018-09-20T11:25:00.720Z,101102.80
2018-09-20T11:27:32.222Z,101091.84
2018-09-20T11:29:59.314Z,101101.37
2018-09-20T11:32:30.864Z,101086.07
2018-09-20T11:35:00.085Z,101096.05
2018-09-20T11:37:29.422Z,101092.42
2018-09-20T11:39:58.283Z,101073.55
2018-09-20T11:42:28.197Z,101089.31
2018-09-20T11:44:57.736Z,101081.79
2018-09-20T11:47:26.868Z,101089.84
2018-09-20T11:49:55.794Z,101088.14
2018-09-20T11:52:27.828Z,101068.88
2018-09-20T11:54:56.864Z,101093.21
2018-09-20T11:57:25.976Z,101064.63
2018-09-20T11:59:57.744Z,101055.94
2018-09-20T12:02:26.781Z,101058.55
2018-09-20T12:04:55.971Z,101066.02
2018-09-20T12:07:24.913Z,101055.90
2018-09-20T12:09:54.242Z,101050.10
2018-09-20T12:12:23.382Z,101057.30
2018-09-20T12:14:52.495Z,101065.98
2018-09-20T12:17:24.519Z,101071.27
2018-09-20T12:19:59.753Z,101070.07
2018-09-20T12:22:25.933Z,101060.22
2018-09-20T12:24:57.420Z,101046.63
2018-09-20T12:27:30.894Z,101059.02
2018-09-20T12:30:01.112Z,101070.05
2018-09-20T12:32:30.291Z,101059.13
2018-09-20T12:34:59.567Z,101048.17
2018-09-20T12:37:38.894Z,101046.41
2018-09-20T12:40:09.104Z,101047.14
2018-09-20T12:42:40.664Z,101035.38
2018-09-20T12:45:10.446Z,101041.50
2018-09-20T12:47:39.641Z,101030.33
2018-09-20T12:50:08.741Z,101031.73
2018-09-20T12:52:39.681Z,101036.05
2018-09-20T12:55:11.367Z,101028.55
2018-09-20T12:57:43.268Z,101028.86
2018-09-20T13:00:18.263Z,101019.06
2018-09-20T13:02:49.979Z,101005.68
2018-09-20T13:05:19.070Z,101014.20
2018-09-20T13:07:48.341Z,101011.50
2018-09-20T13:10:19.454Z,101010.63
2018-09-20T13:12:48.623Z,101006.11
2018-09-20T13:15:17.688Z,101002.17
2018-09-20T13:17:46.789Z,100997.00
2018-09-20T13:20:16.020Z,100995.46
2018-09-20T13:22:45.173Z,100999.96
2018-09-20T13:25:16.301Z,100992.50
2018-09-20T13:27:45.728Z,100988.05
2018-09-20T13:30:14.729Z,100981.41
2018-09-20T13:32:46.401Z,100977.55
2018-09-20T13:35:20.669Z,100991.07
2018-09-20T13:37:50.016Z,100980.91
2018-09-20T13:40:26.389Z,100972.14
2018-09-20T13:42:55.967Z,100967.81
2018-09-20T13:45:25.141Z,100967.97
2018-09-20T13:47:57.209Z,100968.13
2018-09-20T13:50:26.282Z,100964.25
2018-09-20T13:52:57.870Z,100973.02
2018-09-20T13:55:27.105Z,100971.28
2018-09-20T13:57:56.838Z,100967.26
2018-09-20T14:00:27.766Z,100959.69
2018-09-20T14:02:57.437Z,100964.88
2018-09-20T14:05:26.948Z,100948.14
2018-09-20T14:07:56.616Z,100932.18
2018-09-20T14:10:29.022Z,100933.30
2018-09-20T14:12:59.925Z,100922.19
2018-09-20T14:15:28.833Z,100921.09
2018-09-20T14:17:57.950Z,100913.30
2018-09-20T14:20:27.052Z,100924.23
2018-09-20T14:22:56.063Z,100921.19
2018-09-20T14:25:27.248Z,100919.99
2018-09-20T14:27:56.382Z,100906.69
2018-09-20T14:30:25.429Z,100924.89
2018-09-20T14:32:56.713Z,100914.48
2018-09-20T14:35:26.108Z,100900.26
2018-09-20T14:37:55.226Z,100888.84
2018-09-20T14:40:24.295Z,100882.83
2018-09-20T14:42:53.418Z,100891.26
2018-09-20T14:45:22.449Z,100898.91
2018-09-20T14:47:51.496Z,100889.81
2018-09-20T14:50:20.676Z,100878.52
2018-09-20T14:52:50.143Z,100879.69
2018-09-20T14:55:19.188Z,100879.52
2018-09-20T14:57:48.406Z,100888.12
2018-09-20T15:00:17.481Z,100876.46
2018-09-20T15:02:46.638Z,100873.39
2018-09-20T15:05:15.820Z,100868.61
2018-09-20T15:07:45.061Z,100856.12
2018-09-20T15:10:14.173Z,100848.16
2018-09-20T15:12:43.580Z,100844.64
2018-09-20T15:15:15.620Z,100842.05
2018-09-20T15:17:44.617Z,100834.95
2018-09-20T15:20:14.020Z,100833.93
2018-09-20T15:22:45.980Z,100831.42
2018-09-20T15:25:15.003Z,100837.36
2018-09-20T15:27:46.442Z,100848.58
2018-09-20T15:30:15.860Z,100832.34
2018-09-20T15:32:44.851Z,100826.12
2018-09-20T15:35:14.264Z,100828.42
2018-09-20T15:37:43.475Z,100824.84
2018-09-20T15:40:12.489Z,100816.98
2018-09-20T15:42:41.620Z,100821.95
2018-09-20T15:45:10.690Z,100815.78
2018-09-20T15:47:39.748Z,100802.92
2018-09-20T15:50:08.853Z,100799.78
2018-09-20T15:52:38.008Z,100795.78
2018-09-20T15:55:07.135Z,100788.19
2018-09-20T15:57:36.583Z,100785.87
2018-09-20T16:00:06.436Z,100793.52
2018-09-20T16:02:35.521Z,100787.36
2018-09-20T16:05:07.342Z,100777.14
2018-09-20T16:07:36.369Z,100784.84
2018-09-20T16:10:05.458Z,100784.83
2018-09-20T16:12:37.874Z,100776.12
2018-09-20T16:15:09.336Z,100765.56
2018-09-20T16:17:38.179Z,100760.41
2018-09-20T16:20:07.750Z,100761.49
2018-09-20T16:22:36.592Z,100755.64
2018-09-20T16:25:06.069Z,100753.09
2018-09-20T16:27:34.975Z,100750.81
2018-09-20T16:30:46.725Z,100741.17
2018-09-20T16:33:53.576Z,100749.98
2018-09-20T16:36:40.513Z,100750.59
2018-09-20T16:39:16.552Z,100753.23
2018-09-20T16:41:46.775Z,100742.74
2018-09-20T16:44:15.651Z,100739.08
2018-09-20T16:46:44.462Z,100734.98
2018-09-20T16:49:13.330Z,100737.39
2018-09-20T16:51:42.204Z,100735.61
2018-09-20T16:54:11.031Z,100730.89
2018-09-20T16:56:39.902Z,100723.52
2018-09-20T16:59:08.804Z,100717.05
2018-09-20T17:01:37.654Z,100717.16
2018-09-20T17:04:06.491Z,100718.47
2018-09-20T17:06:35.337Z,100716.12
2018-09-20T17:09:06.198Z,100720.50
2018-09-20T17:11:35.033Z,100719.11
2018-09-20T17:14:03.879Z,100719.50
2018-09-20T17:16:32.822Z,100716.50
2018-09-20T17:19:01.633Z,100715.48
2018-09-20T17:21:30.450Z,100710.67
2018-09-20T17:23:59.293Z,100710.34
2018-09-20T17:26:28.144Z,100704.85
2018-09-20T17:28:56.992Z,100713.36
2018-09-20T17:31:25.816Z,100712.98
2018-09-20T17:33:54.632Z,100711.89
2018-09-20T17:36:23.703Z,100705.45
2018-09-20T17:38:53.181Z,100698.58
2018-09-20T17:41:24.933Z,100693.78
2018-09-20T17:43:55.646Z,100689.73
2018-09-20T17:46:24.455Z,100689.04
2018-09-20T17:48:53.292Z,100689.70
2018-09-20T17:51:22.272Z,100687.75
2018-09-20T17:53:51.411Z,100687.66
2018-09-20T17:56:20.527Z,100685.05
2018-09-20T17:58:49.587Z,100684.86
2018-09-20T18:01:18.445Z,100684.06
2018-09-20T18:03:47.251Z,100682.80
2018-09-20T18:06:16.073Z,100674.56
2018-09-20T18:08:44.912Z,100678.30
2018-09-20T18:11:13.716Z,100679.83
2018-09-20T18:13:42.574Z,100676.41
2018-09-20T18:16:11.388Z,100678.06
2018-09-20T18:18:40.196Z,100668.66
2018-09-20T18:21:09.027Z,100662.08
2018-09-20T18:23:37.852Z,100665.74
2018-09-20T18:26:06.702Z,100663.20
2018-09-20T18:28:35.636Z,100663.30
2018-09-20T18:31:04.487Z,100654.96
2018-09-20T18:33:33.316Z,100656.45
2018-09-20T18:36:02.153Z,100655.30
2018-09-20T18:38:31.006Z,100654.44
2018-09-20T18:40:59.856Z,100639.68
2018-09-20T18:43:28.673Z,100639.79
2018-09-20T18:45:57.496Z,100641.85
2018-09-20T18:48:26.427Z,100635.91
2018-09-20T18:50:55.180Z,100637.75
2018-09-20T18:53:24.017Z,100631.44
2018-09-20T18:55:52.958Z,100632.45
2018-09-20T18:58:21.817Z,100634.63
2018-09-20T19:00:52.395Z,100629.11
2018-09-20T19:03:21.762Z,100622.42
2018-09-20T19:05:50.581Z,100621.89
2018-09-20T19:08:19.666Z,100621.69
2018-09-20T19:10:48.501Z,100619.18
2018-09-20T19:13:17.321Z,100611.22
2018-09-20T19:15:46.180Z,100607.23
2018-09-20T19:18:14.997Z,100610.20
2018-09-20T19:20:43.843Z,100611.58
2018-09-20T19:23:12.684Z,100606.59
2018-09-20T19:25:41.519Z,100605.11
2018-09-20T19:28:10.382Z,100601.28
2018-09-20T19:30:39.280Z,100598.32
2018-09-20T19:33:08.122Z,100604.79
2018-09-20T19:35:36.938Z,100590.76
2018-09-20T19:38:05.794Z,100593.13
2018-09-20T19:40:34.643Z,100591.95
2018-09-20T19:43:03.457Z,100583.79
2018-09-20T19:45:32.275Z,100581.95
2018-09-20T19:48:01.130Z,100575.52
2018-09-20T19:50:29.957Z,100575.84
2018-09-20T19:52:58.795Z,100570.22
2018-09-20T19:55:27.622Z,100565.54
2018-09-20T19:57:56.464Z,100562.78
2018-09-20T20:00:25.353Z,100554.29
2018-09-20T20:02:54.127Z,100555.98
2018-09-20T20:05:22.975Z,100550.57
2018-09-20T20:07:51.795Z,100540.67
2018-09-20T20:10:20.612Z,100537.48
2018-09-20T20:12:49.435Z,100536.73
2018-09-20T20:15:18.297Z,100535.34
2018-09-20T20:17:47.284Z,100542.95
2018-09-20T20:20:16.124Z,100525.27
2018-09-20T20:22:44.943Z,100518.36
2018-09-20T20:25:13.776Z,100513.44
2018-09-20T20:27:42.643Z,100513.64
2018-09-20T20:30:11.497Z,100508.55
2018-09-20T20:32:40.447Z,100508.13
2018-09-20T20:35:09.152Z,100501.75
2018-09-20T20:37:37.982Z,100500.81
2018-09-20T20:40:06.982Z,100482.66
2018-09-20T20:42:35.819Z,100488.39
2018-09-20T20:45:04.821Z,100482.88
2018-09-20T20:47:33.562Z,100496.31
2018-09-20T20:50:02.577Z,100482.20
2018-09-20T20:52:31.429Z,100480.09
2018-09-20T20:55:00.289Z,100473.95
2018-09-20T20:57:29.153Z,100466.54
2018-09-20T20:59:58.077Z,100473.06
2018-09-20T21:02:27.136Z,100466.16
2018-09-20T21:04:55.987Z,100470.73
2018-09-20T21:07:24.833Z,100458.32
2018-09-20T21:09:53.680Z,100450.27
2018-09-20T21:12:22.515Z,100436.16
2018-09-20T21:14:51.378Z,100436.53
2018-09-20T21:17:20.260Z,100435.15
2018-09-20T21:19:49.033Z,100434.08
2018-09-20T21:22:17.886Z,100431.56
2018-09-20T21:24:46.703Z,100434.02
2018-09-20T21:27:15.555Z,100423.61
2018-09-20T21:29:44.388Z,100423.77
2018-09-20T21:32:13.259Z,100413.95
2018-09-20T21:34:42.095Z,100409.72
2018-09-20T21:37:10.928Z,100412.88
2018-09-20T21:39:39.761Z,100405.39
2018-09-20T21:42:08.608Z,100407.14
2018-09-20T21:44:37.440Z,100407.72
2018-09-20T21:47:06.332Z,100399.73
2018-09-20T21:49:35.172Z,100393.33
2018-09-20T21:52:04.028Z,100386.41
2018-09-20T21:54:32.867Z,100383.30
2018-09-20T21:57:01.694Z,100371.59
2018-09-20T21:59:30.566Z,100360.03
2018-09-20T22:02:03.174Z,100361.46
2018-09-20T22:04:32.880Z,100354.73
2018-09-20T22:07:01.735Z,100346.56
2018-09-20T22:09:31.173Z,100340.16
2018-09-20T22:12:00.054Z,100338.92
2018-09-20T22:14:28.871Z,100338.19
2018-09-20T22:16:57.693Z,100336.97
2018-09-20T22:19:26.552Z,100335.69
2018-09-20T22:21:55.402Z,100332.14
2018-09-20T22:24:24.215Z,100346.09
2018-09-20T22:26:53.048Z,100323.62
2018-09-20T22:29:21.901Z,100327.34
2018-09-20T22:31:50.733Z,100323.70
2018-09-20T22:34:19.557Z,100314.25
2018-09-20T22:36:48.462Z,100306.67
2018-09-20T22:39:17.290Z,100305.17
2018-09-20T22:41:46.113Z,100304.38
2018-09-20T22:44:14.933Z,100297.28
2018-09-20T22:46:43.773Z,100306.86
2018-09-20T22:49:12.623Z,100295.63
2018-09-20T22:51:41.473Z,100292.61
2018-09-20T22:54:10.349Z,100296.86
2018-09-20T22:56:39.193Z,100282.08
2018-09-20T22:59:08.047Z,100279.95
2018-09-20T23:01:36.873Z,100270.56
2018-09-20T23:04:05.695Z,100274.91
2018-09-20T23:06:34.536Z,100270.03
2018-09-20T23:09:03.376Z,100269.93
2018-09-20T23:11:32.187Z,100269.62
2018-09-20T23:14:01.002Z,100264.73
2018-09-20T23:16:29.855Z,100264.98
2018-09-20T23:18:58.686Z,100258.50
2018-09-20T23:21:27.676Z,100254.01
2018-09-20T23:23:56.509Z,100253.11
2018-09-20T23:26:25.330Z,100249.07
2018-09-20T23:28:54.147Z,100246.53
2018-09-20T23:31:22.983Z,100237.64
2018-09-20T23:33:51.817Z,100244.37
2018-09-20T23:36:20.663Z,100240.93
2018-09-20T23:38:49.467Z,100229.16
2018-09-20T23:41:18.283Z,100231.78
2018-09-20T23:43:47.114Z,100226.97
2018-09-20T23:46:15.941Z,100223.02
2018-09-20T23:48:44.809Z,100220.13
2018-09-20T23:51:13.636Z,100222.33
2018-09-20T23:53:42.504Z,100210.20
2018-09-20T23:56:11.374Z,100203.27
2018-09-20T23:58:40.206Z,100192.05
